createdAt,value
2023-02-06T00:02:14.879Z,4.07
2023-02-06T00:04:43.082Z,4.43
2023-02-06T00:07:15.015Z,6.03
2023-02-06T00:09:43.170Z,4.63
2023-02-06T00:12:11.375Z,4.73
2023-02-06T00:14:39.365Z,5.13
2023-02-06T00:17:07.300Z,4.53
2023-02-06T00:19:35.238Z,4.37
2023-02-06T00:22:03.212Z,4.50
2023-02-06T00:24:34.011Z,4.57
2023-02-06T00:27:02.219Z,4.60
2023-02-06T00:29:31.565Z,5.20
2023-02-06T00:31:59.635Z,5.20
2023-02-06T00:34:28.309Z,4.53
2023-02-06T00:36:56.520Z,4.67
2023-02-06T00:39:27.586Z,4.43
2023-02-06T00:41:57.028Z,4.07
2023-02-06T00:44:27.530Z,4.80
2023-02-06T00:46:56.229Z,4.43
2023-02-06T00:49:24.454Z,4.67
2023-02-06T00:51:52.623Z,4.57
2023-02-06T00:54:21.490Z,4.30
2023-02-06T00:56:49.993Z,3.90
2023-02-06T00:59:21.080Z,4.37
2023-02-06T01:01:49.342Z,4.33
2023-02-06T01:04:17.662Z,4.33
2023-02-06T01:06:45.689Z,4.83
2023-02-06T01:09:13.728Z,4.77
2023-02-06T01:11:44.058Z,4.73
2023-02-06T01:14:12.248Z,5.00
2023-02-06T01:16:43.874Z,5.27
2023-02-06T01:19:13.169Z,4.00
2023-02-06T01:21:41.194Z,5.10
2023-02-06T01:24:09.522Z,4.37
2023-02-06T01:26:40.597Z,3.97
2023-02-06T01:29:08.568Z,3.67
2023-02-06T01:31:37.365Z,4.03
2023-02-06T01:34:07.544Z,4.73
2023-02-06T01:36:39.452Z,3.93
2023-02-06T01:39:08.404Z,3.93
2023-02-06T01:41:37.397Z,3.97
2023-02-06T01:44:12.525Z,4.77
2023-02-06T01:47:01.744Z,3.67
2023-02-06T01:49:35.076Z,4.17
2023-02-06T01:52:14.397Z,4.53
2023-02-06T01:54:43.257Z,5.00
2023-02-06T01:57:13.763Z,5.30
2023-02-06T02:00:07.165Z,5.20
2023-02-06T02:02:37.053Z,4.00
2023-02-06T02:05:10.939Z,4.63
2023-02-06T02:07:47.442Z,4.63
2023-02-06T02:10:18.405Z,4.03
2023-02-06T02:12:48.253Z,4.17
2023-02-06T02:15:16.669Z,4.33
2023-02-06T02:17:55.987Z,4.50
2023-02-06T02:20:57.482Z,3.60
2023-02-06T02:23:37.428Z,3.43
2023-02-06T02:26:50.635Z,3.83
2023-02-06T02:29:51.616Z,3.63
2023-02-06T02:32:58.055Z,4.70
2023-02-06T02:35:39.243Z,3.93
2023-02-06T02:38:22.049Z,3.40
2023-02-06T02:40:55.950Z,3.90
2023-02-06T02:43:37.264Z,4.17
2023-02-06T02:46:14.441Z,4.73
2023-02-06T02:48:46.831Z,3.00
2023-02-06T02:51:22.145Z,3.83
2023-02-06T02:53:50.453Z,3.67
2023-02-06T02:56:20.418Z,4.27
2023-02-06T02:58:54.376Z,3.80
2023-02-06T03:01:28.361Z,3.07
2023-02-06T03:03:58.606Z,3.80
2023-02-06T03:06:44.316Z,3.60
2023-02-06T03:09:19.635Z,3.90
2023-02-06T03:11:56.568Z,3.87
2023-02-06T03:14:32.440Z,3.33
2023-02-06T03:17:08.644Z,3.70
2023-02-06T03:19:47.087Z,4.00
2023-02-06T03:22:17.904Z,3.63
2023-02-06T03:24:54.986Z,3.60
2023-02-06T03:27:26.503Z,3.83
2023-02-06T03:29:57.480Z,3.27
2023-02-06T03:32:29.718Z,3.60
2023-02-06T03:35:03.754Z,3.40
2023-02-06T03:37:33.928Z,3.90
2023-02-06T03:40:03.372Z,3.60
2023-02-06T03:42:35.224Z,2.83
2023-02-06T03:45:09.270Z,3.27
2023-02-06T03:47:39.870Z,3.83
2023-02-06T03:50:11.719Z,3.83
2023-02-06T03:52:46.022Z,3.37
2023-02-06T03:55:17.200Z,3.37
2023-02-06T03:57:53.949Z,3.47
2023-02-06T04:00:22.825Z,3.43
2023-02-06T04:02:58.367Z,3.77
2023-02-06T04:05:26.660Z,3.67
2023-02-06T04:08:03.703Z,3.93
2023-02-06T04:10:33.708Z,3.40
2023-02-06T04:13:02.133Z,3.40
2023-02-06T04:15:30.368Z,3.40
2023-02-06T04:18:01.526Z,2.77
2023-02-06T04:20:30.495Z,3.70
2023-02-06T04:23:00.521Z,3.40
2023-02-06T04:25:28.864Z,3.10
2023-02-06T04:27:59.478Z,3.10
2023-02-06T04:30:28.751Z,3.40
2023-02-06T04:32:56.737Z,3.57
2023-02-06T04:35:24.793Z,3.70
2023-02-06T04:37:55.437Z,3.77
2023-02-06T04:40:27.011Z,4.27
2023-02-06T04:42:55.051Z,3.27
2023-02-06T04:45:23.125Z,4.17
2023-02-06T04:47:51.292Z,3.90
2023-02-06T04:50:20.191Z,3.27
2023-02-06T04:52:48.752Z,3.60
2023-02-06T04:55:16.742Z,3.70
2023-02-06T04:57:48.963Z,3.67
2023-02-06T05:00:17.890Z,3.10
2023-02-06T05:02:47.855Z,3.70
2023-02-06T05:05:16.056Z,3.20
2023-02-06T05:07:44.397Z,3.37
2023-02-06T05:10:12.550Z,3.27
2023-02-06T05:13:03.307Z,3.50
2023-02-06T05:15:31.729Z,3.37
2023-02-06T05:18:03.027Z,3.40
2023-02-06T05:20:32.060Z,3.70
2023-02-06T05:23:00.259Z,2.80
2023-02-06T05:25:28.288Z,3.70
2023-02-06T05:27:57.386Z,3.87
2023-02-06T05:30:26.789Z,3.20
2023-02-06T05:32:54.715Z,3.70
2023-02-06T05:35:22.654Z,3.63
2023-02-06T05:37:50.645Z,3.53
2023-02-06T05:40:18.918Z,2.97
2023-02-06T05:42:46.867Z,4.37
2023-02-06T05:45:14.903Z,3.13
2023-02-06T05:47:44.171Z,3.03
2023-02-06T05:50:12.109Z,3.10
2023-02-06T05:52:40.054Z,3.30
2023-02-06T05:55:09.262Z,3.63
2023-02-06T05:57:37.253Z,2.80
2023-02-06T06:00:06.888Z,3.20
2023-02-06T06:02:34.832Z,3.60
2023-02-06T06:05:04.514Z,2.77
2023-02-06T06:07:32.524Z,3.63
2023-02-06T06:10:01.277Z,3.90
2023-02-06T06:12:29.486Z,3.50
2023-02-06T06:14:57.416Z,2.93
2023-02-06T06:17:25.342Z,3.60
2023-02-06T06:19:53.559Z,3.37
2023-02-06T06:22:23.051Z,3.13
2023-02-06T06:24:51.137Z,4.00
2023-02-06T06:27:19.108Z,3.27
2023-02-06T06:29:47.075Z,4.70
2023-02-06T06:32:15.129Z,3.67
2023-02-06T06:34:43.117Z,3.37
2023-02-06T06:37:11.042Z,4.47
2023-02-06T06:39:40.475Z,4.07
2023-02-06T06:42:08.637Z,4.57
2023-02-06T06:44:36.718Z,3.43
2023-02-06T06:47:05.039Z,3.53
2023-02-06T06:49:34.232Z,4.03
2023-02-06T06:52:02.343Z,3.87
2023-02-06T06:54:30.372Z,4.33
2023-02-06T06:56:59.857Z,3.93
2023-02-06T06:59:28.199Z,3.50
2023-02-06T07:01:56.133Z,3.47
2023-02-06T07:04:28.442Z,3.93
2023-02-06T07:06:56.450Z,3.80
2023-02-06T07:09:24.814Z,3.83
2023-02-06T07:11:52.766Z,3.43
2023-02-06T07:14:22.149Z,3.90
2023-02-06T07:16:50.176Z,4.00
2023-02-06T07:19:18.261Z,3.90
2023-02-06T07:21:46.182Z,4.33
2023-02-06T07:24:14.278Z,4.00
2023-02-06T07:26:42.536Z,4.13
2023-02-06T07:29:10.781Z,4.20
2023-02-06T07:31:40.226Z,3.93
2023-02-06T07:34:08.261Z,4.43
2023-02-06T07:36:36.329Z,4.50
2023-02-06T07:39:04.686Z,4.60
2023-02-06T07:41:32.761Z,4.93
2023-02-06T07:44:00.816Z,5.07
2023-02-06T07:46:28.890Z,4.13
2023-02-06T07:48:58.802Z,4.13
2023-02-06T07:51:27.557Z,4.00
2023-02-06T07:53:55.804Z,4.53
2023-02-06T07:56:25.206Z,4.23
2023-02-06T07:58:54.733Z,4.47
2023-02-06T08:01:23.833Z,4.63
2023-02-06T08:03:51.980Z,4.63
2023-02-06T08:06:24.362Z,5.73
2023-02-06T08:08:52.834Z,4.47
2023-02-06T08:11:24.003Z,4.63
2023-02-06T08:13:51.977Z,5.43
2023-02-06T08:16:21.213Z,5.23
2023-02-06T08:18:49.393Z,5.23
2023-02-06T08:21:19.926Z,4.67
2023-02-06T08:23:54.845Z,5.30
2023-02-06T08:26:23.476Z,5.33
2023-02-06T08:28:52.361Z,5.00
2023-02-06T08:31:22.531Z,5.47
2023-02-06T08:33:51.046Z,4.73
2023-02-06T08:36:20.900Z,4.80
2023-02-06T08:38:50.787Z,5.23
2023-02-06T08:41:20.499Z,4.70
2023-02-06T08:43:49.785Z,4.07
2023-02-06T08:46:19.223Z,4.27
2023-02-06T08:48:47.659Z,4.23
2023-02-06T08:51:16.312Z,4.97
2023-02-06T08:53:44.527Z,4.80
2023-02-06T08:56:14.188Z,5.33
2023-02-06T08:58:42.771Z,4.30
2023-02-06T09:01:13.777Z,4.40
2023-02-06T09:03:43.023Z,5.17
2023-02-06T09:06:12.419Z,4.53
2023-02-06T09:08:41.675Z,4.20
2023-02-06T09:11:11.287Z,4.37
2023-02-06T09:13:40.734Z,5.13
2023-02-06T09:16:09.315Z,4.93
2023-02-06T09:18:37.890Z,4.60
2023-02-06T09:21:12.476Z,6.13
2023-02-06T09:23:42.606Z,5.37
2023-02-06T09:26:10.805Z,5.03
2023-02-06T09:28:40.281Z,5.00
2023-02-06T09:31:08.837Z,5.77
2023-02-06T09:33:38.902Z,6.43
2023-02-06T09:36:09.651Z,6.03
2023-02-06T09:38:39.725Z,5.77
2023-02-06T09:41:15.753Z,5.57
2023-02-06T09:43:50.855Z,4.17
2023-02-06T09:46:23.328Z,4.30
2023-02-06T09:48:52.172Z,3.73
2023-02-06T09:51:27.969Z,4.00
2023-02-06T09:54:05.837Z,3.50
2023-02-06T09:56:50.146Z,3.60
2023-02-06T09:59:28.117Z,3.57
2023-02-06T10:02:08.344Z,2.90
2023-02-06T10:04:45.248Z,3.90
2023-02-06T10:07:25.309Z,3.70
2023-02-06T10:09:59.542Z,3.47
2023-02-06T10:12:32.365Z,3.73
2023-02-06T10:15:05.769Z,3.77
2023-02-06T10:17:39.057Z,2.93
2023-02-06T10:20:13.033Z,4.07
2023-02-06T10:22:48.755Z,3.30
2023-02-06T10:25:22.859Z,3.17
2023-02-06T10:27:55.664Z,3.43
2023-02-06T10:30:36.953Z,3.50
2023-02-06T10:33:24.822Z,3.00
2023-02-06T10:36:00.786Z,3.60
2023-02-06T10:38:48.716Z,3.33
2023-02-06T10:41:27.675Z,3.03
2023-02-06T10:44:00.716Z,3.20
2023-02-06T10:46:43.880Z,2.83
2023-02-06T10:49:23.004Z,2.17
2023-02-06T10:51:55.272Z,2.80
2023-02-06T10:54:26.612Z,2.93
2023-02-06T10:56:58.078Z,3.30
2023-02-06T10:59:31.039Z,3.00
2023-02-06T11:02:19.109Z,3.20
2023-02-06T11:04:54.962Z,2.80
2023-02-06T11:07:28.238Z,2.67
2023-02-06T11:09:56.417Z,2.97
2023-02-06T11:12:31.271Z,2.87
2023-02-06T11:15:02.753Z,3.17
2023-02-06T11:17:32.655Z,3.13
2023-02-06T11:20:16.144Z,3.10
2023-02-06T11:22:52.592Z,2.90
2023-02-06T11:25:26.713Z,3.03
2023-02-06T11:27:55.539Z,3.00
2023-02-06T11:30:30.662Z,2.23
2023-02-06T11:33:05.171Z,3.03
2023-02-06T11:35:37.814Z,2.63
2023-02-06T11:38:15.995Z,2.83
2023-02-06T11:40:44.638Z,2.40
2023-02-06T11:43:21.281Z,3.20
2023-02-06T11:45:52.575Z,2.67
2023-02-06T11:48:38.432Z,2.77
2023-02-06T11:51:09.029Z,3.20
2023-02-06T11:53:38.029Z,2.93
2023-02-06T11:56:16.685Z,2.77
2023-02-06T11:58:45.841Z,3.00
2023-02-06T12:01:20.942Z,3.10
2023-02-06T12:03:56.781Z,3.03
2023-02-06T12:06:31.472Z,3.30
2023-02-06T12:09:02.101Z,3.40
2023-02-06T12:11:36.243Z,3.30
2023-02-06T12:14:08.155Z,3.00
2023-02-06T12:16:39.622Z,3.50
2023-02-06T12:19:16.683Z,3.03
2023-02-06T12:21:49.683Z,3.00
2023-02-06T12:24:32.268Z,3.03
2023-02-06T12:27:06.661Z,2.80
2023-02-06T12:29:37.808Z,3.30
2023-02-06T12:32:10.850Z,3.30
2023-02-06T12:34:53.817Z,2.90
2023-02-06T12:37:31.824Z,2.87
2023-02-06T12:40:01.072Z,3.10
2023-02-06T12:42:38.046Z,2.80
2023-02-06T12:45:16.418Z,3.10
2023-02-06T12:47:49.547Z,2.70
2023-02-06T12:50:23.720Z,2.83
2023-02-06T12:52:55.942Z,2.77
2023-02-06T12:55:28.197Z,2.67
2023-02-06T12:57:57.737Z,1.87
2023-02-06T13:00:50.339Z,2.10
2023-02-06T13:03:28.712Z,2.27
2023-02-06T13:06:13.383Z,2.27
2023-02-06T13:08:45.522Z,2.60
2023-02-06T13:11:30.143Z,2.33
2023-02-06T13:14:07.040Z,2.00
2023-02-06T13:16:46.893Z,2.43
2023-02-06T13:19:30.941Z,2.90
2023-02-06T13:22:37.809Z,2.37
2023-02-06T13:25:50.921Z,2.03
2023-02-06T13:28:46.541Z,1.90
2023-02-06T13:31:29.720Z,2.97
2023-02-06T13:34:01.237Z,2.80
2023-02-06T13:36:57.577Z,2.93
2023-02-06T13:39:32.006Z,2.47
2023-02-06T13:42:24.171Z,2.53
2023-02-06T13:44:54.629Z,3.40
2023-02-06T13:48:02.393Z,2.40
2023-02-06T13:50:51.265Z,2.73
2023-02-06T13:53:41.035Z,2.77
2023-02-06T13:56:35.372Z,2.27
2023-02-06T13:59:13.626Z,2.47
2023-02-06T14:01:43.388Z,1.63
2023-02-06T14:04:20.621Z,2.27
2023-02-06T14:07:17.644Z,2.57
2023-02-06T14:10:18.107Z,2.17
2023-02-06T14:13:04.030Z,2.77
2023-02-06T14:15:39.437Z,2.43
2023-02-06T14:18:27.003Z,2.60
2023-02-06T14:21:04.943Z,2.77
2023-02-06T14:23:45.631Z,2.73
2023-02-06T14:26:27.830Z,3.40
2023-02-06T14:29:02.910Z,3.00
2023-02-06T14:31:51.408Z,2.97
2023-02-06T14:34:36.108Z,3.10
2023-02-06T14:37:28.714Z,2.80
2023-02-06T14:40:04.458Z,3.27
2023-02-06T14:42:38.365Z,3.00
2023-02-06T14:45:10.348Z,3.37
2023-02-06T14:47:42.643Z,2.27
2023-02-06T14:50:21.112Z,2.70
2023-02-06T14:52:53.800Z,2.80
2023-02-06T14:55:33.978Z,3.20
2023-02-06T14:58:02.596Z,4.57
2023-02-06T15:00:31.357Z,4.30
2023-02-06T15:03:09.172Z,3.57
2023-02-06T15:05:38.853Z,3.00
2023-02-06T15:08:07.904Z,3.70
2023-02-06T15:10:37.933Z,3.53
2023-02-06T15:13:06.270Z,3.20
2023-02-06T15:15:36.078Z,3.63
2023-02-06T15:18:06.775Z,4.07
2023-02-06T15:20:40.401Z,3.97
2023-02-06T15:23:18.124Z,3.50
2023-02-06T15:26:02.791Z,3.07
2023-02-06T15:28:34.804Z,3.00
2023-02-06T15:31:03.791Z,3.70
2023-02-06T15:33:33.665Z,3.27
2023-02-06T15:36:05.180Z,3.73
2023-02-06T15:38:34.953Z,3.30
2023-02-06T15:41:06.905Z,3.60
2023-02-06T15:43:35.932Z,3.37
2023-02-06T15:46:06.982Z,3.70
2023-02-06T15:48:38.130Z,3.53
2023-02-06T15:51:23.728Z,4.10
2023-02-06T15:53:53.124Z,3.40
2023-02-06T15:56:25.532Z,3.23
2023-02-06T15:58:59.271Z,3.50
2023-02-06T16:01:30.406Z,3.27
2023-02-06T16:04:06.337Z,3.50
2023-02-06T16:06:37.455Z,4.40
2023-02-06T16:09:08.372Z,3.50
2023-02-06T16:11:49.409Z,3.40
2023-02-06T16:14:25.236Z,3.60
2023-02-06T16:17:01.651Z,3.47
2023-02-06T16:19:47.906Z,4.30
2023-02-06T16:22:23.376Z,3.03
2023-02-06T16:24:54.007Z,3.63
2023-02-06T16:27:24.172Z,4.03
2023-02-06T16:29:55.109Z,2.77
2023-02-06T16:32:26.158Z,2.90
2023-02-06T16:34:54.343Z,3.27
2023-02-06T16:37:27.075Z,2.67
2023-02-06T16:39:55.918Z,3.30
2023-02-06T16:42:25.769Z,2.50
2023-02-06T16:44:59.348Z,3.07
2023-02-06T16:47:28.081Z,3.90
2023-02-06T16:49:56.284Z,3.07
2023-02-06T16:52:27.300Z,4.18
2023-02-06T16:54:57.777Z,3.90
2023-02-06T16:57:31.132Z,3.40
2023-02-06T16:59:59.817Z,4.03
2023-02-06T17:02:28.898Z,3.67
2023-02-06T17:04:57.038Z,4.23
2023-02-06T17:07:28.956Z,2.97
2023-02-06T17:09:59.457Z,3.00
2023-02-06T17:12:27.519Z,3.27
2023-02-06T17:14:56.411Z,3.23
2023-02-06T17:17:24.519Z,4.67
2023-02-06T17:19:53.756Z,3.73
2023-02-06T17:22:21.821Z,4.10
2023-02-06T17:24:51.527Z,5.00
2023-02-06T17:27:21.995Z,4.53
2023-02-06T17:29:51.120Z,4.30
2023-02-06T17:32:23.625Z,5.13
2023-02-06T17:34:54.085Z,4.93
2023-02-06T17:37:22.417Z,5.40
2023-02-06T17:39:53.172Z,5.13
2023-02-06T17:42:21.980Z,4.97
2023-02-06T17:44:50.471Z,4.90
2023-02-06T17:47:18.760Z,4.53
2023-02-06T17:49:47.802Z,3.33
2023-02-06T17:52:16.030Z,4.17
2023-02-06T17:54:44.544Z,4.00
2023-02-06T17:57:14.373Z,4.03
2023-02-06T17:59:42.394Z,4.00
2023-02-06T18:02:16.590Z,4.00
2023-02-06T18:04:44.650Z,4.67
2023-02-06T18:07:13.009Z,4.07
2023-02-06T18:09:42.224Z,4.43
2023-02-06T18:12:11.042Z,3.87
2023-02-06T18:14:40.896Z,4.60
2023-02-06T18:17:09.909Z,4.80
2023-02-06T18:19:42.014Z,4.63
2023-02-06T18:22:11.486Z,5.10
2023-02-06T18:24:39.533Z,5.07
2023-02-06T18:27:08.666Z,5.23
2023-02-06T18:29:49.412Z,6.67
2023-02-06T18:32:19.202Z,6.27
2023-02-06T18:34:47.878Z,6.23
2023-02-06T18:37:15.945Z,5.80
2023-02-06T18:39:44.179Z,6.30
2023-02-06T18:42:30.352Z,6.20
2023-02-06T18:44:59.878Z,7.10
2023-02-06T18:47:27.886Z,9.00
2023-02-06T18:49:56.074Z,8.67
2023-02-06T18:52:24.276Z,9.60
2023-02-06T18:54:52.276Z,9.33
2023-02-06T18:57:20.650Z,8.50
2023-02-06T18:59:50.248Z,6.97
2023-02-06T19:02:21.459Z,5.83
2023-02-06T19:04:49.924Z,6.00
2023-02-06T19:07:24.740Z,5.93
2023-02-06T19:09:59.892Z,5.47
2023-02-06T19:12:31.946Z,5.17
2023-02-06T19:15:02.827Z,6.20
2023-02-06T19:17:32.616Z,5.33
2023-02-06T19:20:00.949Z,6.43
2023-02-06T19:22:31.910Z,6.67
2023-02-06T19:25:00.054Z,5.90
2023-02-06T19:27:28.373Z,6.00
2023-02-06T19:29:56.652Z,6.47
2023-02-06T19:32:26.615Z,7.00
2023-02-06T19:35:00.443Z,5.73
2023-02-06T19:37:28.805Z,6.23
2023-02-06T19:39:57.282Z,6.93
2023-02-06T19:42:26.837Z,6.13
2023-02-06T19:44:57.463Z,6.03
2023-02-06T19:47:25.680Z,5.53
2023-02-06T19:49:56.022Z,6.23
2023-02-06T19:52:24.274Z,6.37
2023-02-06T19:54:52.469Z,6.17
2023-02-06T19:57:22.889Z,6.03
2023-02-06T19:59:51.132Z,5.97
2023-02-06T20:02:19.140Z,5.43
2023-02-06T20:04:49.243Z,7.93
2023-02-06T20:07:19.173Z,7.10
2023-02-06T20:10:08.322Z,6.03
2023-02-06T20:12:36.632Z,6.13
2023-02-06T20:15:05.249Z,5.43
2023-02-06T20:17:37.063Z,5.47
2023-02-06T20:20:09.891Z,5.53
2023-02-06T20:22:40.810Z,5.50
2023-02-06T20:25:09.427Z,5.40
2023-02-06T20:27:37.740Z,5.67
2023-02-06T20:30:07.077Z,5.23
2023-02-06T20:32:35.493Z,5.60
2023-02-06T20:35:03.621Z,5.53
2023-02-06T20:37:32.322Z,5.97
2023-02-06T20:40:02.279Z,5.57
2023-02-06T20:42:32.021Z,6.43
2023-02-06T20:45:00.172Z,5.73
2023-02-06T20:47:31.031Z,6.80
2023-02-06T20:50:00.478Z,5.57
2023-02-06T20:52:48.712Z,5.90
2023-02-06T20:55:19.271Z,6.27
2023-02-06T20:57:48.186Z,6.13
2023-02-06T21:00:17.982Z,14.70
2023-02-06T21:02:47.627Z,12.90
2023-02-06T21:05:19.301Z,11.57
2023-02-06T21:07:50.579Z,10.53
2023-02-06T21:10:21.864Z,9.57
2023-02-06T21:12:50.333Z,9.23
2023-02-06T21:15:20.742Z,8.60
2023-02-06T21:17:53.826Z,8.43
2023-02-06T21:20:58.521Z,8.57
2023-02-06T21:23:29.283Z,8.43
2023-02-06T21:26:21.016Z,7.83
2023-02-06T21:29:10.719Z,7.60
2023-02-06T21:31:44.285Z,7.83
2023-02-06T21:34:20.626Z,8.00
2023-02-06T21:36:50.183Z,7.90
2023-02-06T21:39:26.137Z,8.03
2023-02-06T21:41:57.292Z,7.07
2023-02-06T21:44:30.136Z,6.70
2023-02-06T21:46:58.541Z,6.37
2023-02-06T21:49:28.399Z,7.63
2023-02-06T21:51:59.516Z,6.37
2023-02-06T21:54:33.462Z,6.63
2023-02-06T21:57:18.116Z,7.40
2023-02-06T21:59:47.994Z,7.00
2023-02-06T22:02:16.454Z,7.87
2023-02-06T22:04:44.888Z,7.47
2023-02-06T22:07:14.241Z,7.27
2023-02-06T22:09:46.025Z,7.40
2023-02-06T22:12:17.921Z,7.17
2023-02-06T22:14:47.315Z,7.57
2023-02-06T22:17:17.141Z,7.23
2023-02-06T22:19:45.658Z,6.33
2023-02-06T22:22:21.705Z,7.73
2023-02-06T22:24:52.455Z,6.50
2023-02-06T22:27:20.863Z,7.40
2023-02-06T22:29:54.813Z,7.57
2023-02-06T22:32:23.163Z,6.80
2023-02-06T22:34:54.203Z,7.30
2023-02-06T22:37:23.442Z,7.77
2023-02-06T22:39:51.788Z,7.60
2023-02-06T22:42:22.824Z,7.50
2023-02-06T22:44:53.365Z,8.03
2023-02-06T22:47:21.383Z,8.57
2023-02-06T22:49:54.050Z,9.03
2023-02-06T22:52:45.877Z,9.13
2023-02-06T22:55:14.414Z,9.60
2023-02-06T22:57:45.158Z,10.80
2023-02-06T23:00:16.982Z,10.10
2023-02-06T23:02:45.056Z,10.43
2023-02-06T23:05:13.322Z,9.93
2023-02-06T23:07:42.052Z,9.50
2023-02-06T23:10:10.762Z,10.47
2023-02-06T23:12:40.665Z,9.87
2023-02-06T23:15:09.778Z,10.00
2023-02-06T23:17:39.701Z,9.60
2023-02-06T23:20:08.594Z,9.27
2023-02-06T23:22:37.215Z,9.53
2023-02-06T23:25:05.810Z,9.53
2023-02-06T23:27:38.835Z,8.20
2023-02-06T23:30:12.126Z,9.07
2023-02-06T23:32:41.840Z,8.33
2023-02-06T23:35:30.327Z,8.30
2023-02-06T23:37:58.356Z,8.17
2023-02-06T23:40:50.045Z,8.20
2023-02-06T23:43:23.318Z,7.63
2023-02-06T23:46:15.300Z,7.07
2023-02-06T23:48:45.060Z,8.03
2023-02-06T23:51:17.898Z,7.57
2023-02-06T23:53:47.301Z,7.30
2023-02-06T23:56:21.397Z,7.70
2023-02-06T23:58:50.722Z,7.13
